Tiempo atmosférico en la estación meteorológica de Badajoz Aeropuerto, Badajoz (185 m.)



Fecha
DESCASC
Temp. máxima en grados centígrados (hora)
DESCASC
Temp. mínima en grados centígrados (hora)
DESCASC
Temp. media en grados centígrados
DESCASC
Racha de viento máxima en m/sg (hora)
DESCASC
Velocidad máxima media en intervalos de 10 minutos(hora)
DESCASC
Precipitaciones diarias en mm
DESCASC
Precipitaciones de 00:00 a 06:00 en mm
DESCASC
Precipitaciones de 06:00 a 12:00 en mm
DESCASC
Precipitaciones de 12:00 a 18:00 en mm
DESCASC
Precipitaciones de 18:00 a 24:00 en mm
DESCASC
02-08-2020 36.5 (18:10) 16.1 (07:30) 26.3 9.44 (21:30) 5.56 (19:40) 0 0 0 0 0
01-08-2020 39.1 (18:30) 16.2 (07:10) 27.6 8.06 (22:10) 4.72 (23:59) 0 0 0 0 0
31-07-2020 39.9 (18:30) 20.6 (07:50) 30.3 7.5 (23:20) 4.72 (23:20) 0 0 0 0 0
30-07-2020 38.6 (18:40) 22.2 (00:00) 30.4 8.61 (18:00) 5 (16:30) 0 0 0 0 0
29-07-2020 39.5 (18:10) 16.9 (00:00) 28.2 6.11 (00:10) 3.89 (18:20) 0 0 0 0 0
28-07-2020 37 (19:00) 18.7 (00:00) 27.9 8.61 (00:20) 5 (00:30) 0 0 0 0 0
27-07-2020 37.4 (16:10) 20.4 (00:00) 28.9 8.89 (21:50) 6.11 (23:40) 0 0 0 0 0
26-07-2020 41 (18:40) 18.5 (00:00) 29.8 6.67 (00:40) 4.17 (00:50) 0 0 0 0 0
25-07-2020 39.5 (18:10) 17.9 (00:00) 28.7 8.33 (16:00) 5.28 (16:10) 0 0 0 0 0
24-07-2020 38.9 (18:20) 18.7 (00:00) 28.8 7.5 (18:20) 4.72 (20:10) 0 0 0 0 0
23-07-2020 38.7 (17:10) 21 (00:00) 29.9 8.89 (22:30) 4.17 (20:40) 0 0 0 0 0
22-07-2020 36.3 (18:20) 20.1 (00:00) 28.2 6.11 (14:50) 3.61 (15:00) 2 2 0 0 0
21-07-2020 31.2 (17:30) 22.9 (00:00) 27.1 8.61 (17:00) 6.39 (16:50) 1.8 0 1.6 0.2 0
20-07-2020 39.5 (17:50) 19.5 (00:00) 29.5 6.39 (15:00) 3.61 (15:20) 0 0 0 0 0
19-07-2020 38.9 (17:50) 20 (00:00) 29.5 8.89 (18:30) 5.28 (20:10) 0 0 0 0 0
18-07-2020 40.9 (18:20) 22.4 (00:00) 31.7 10.28 (20:10) 6.11 (20:10) 0 0 0 0 0
17-07-2020 41.3 (18:10) 24.6 (00:00) 32.9 9.17 (22:40) 4.17 (22:40) 0 0 0 0 0
16-07-2020 40.5 (17:50) 22.9 (00:00) 31.7 7.78 (19:10) 3.89 (11:00) 0 0 0 0 0
15-07-2020 38.5 (19:00) 19.4 (00:00) 28.9 7.5 (13:20) 3.33 (16:40) 0 0 0 0 0
14-07-2020 38.9 (16:50) 24 (00:00) 31.5 8.61 (15:20) 5.28 (20:30) 0 0 0 0 0
13-07-2020 39.1 (18:00) 23.9 (00:00) 31.5 9.44 (14:00) 5.56 (14:10) 0 0 0 0 0
12-07-2020 38.9 (17:20) 21 (07:40) 30 7.22 (18:30) 4.17 (19:30) 0 0 0 0 0
11-07-2020 40.9 (19:00) 21.1 (07:10) 31 9.44 (22:20) 6.39 (22:40) 0 0 0 0 0
10-07-2020 39 (19:00) 18.7 (00:00) 28.9 6.11 (00:10) 3.89 (06:40) 0 0 0 0 0
09-07-2020 35.7 (20:10) 16.5 (06:50) 26.1 5.28 (06:00) 3.33 (18:30) 0 0 0 0 0
08-07-2020 36.8 (16:30) 20.6 (07:40) 28.7 9.44 (19:50) 5.28 (20:10) 0 0 0 0 0

Gráficas

Temp. máximas Temp. mínimas Temp. medias Precipitaciones Rachas de viento máximas Velocidades máximas media en intervalos de 10 minutos

Datos horarios

Fecha y hora oficial Temperatura (ºC) Velocidad del viento (km/h) Dirección del viento Racha (km/h) Dirección de racha Precipitación (mm) Presión (hPa) Tendencia (hPa) Humedad (%)
2020-08-06 23:00:00 32.6 7 Sudoeste 19 Sudoeste 0 990.5 2 29
2020-08-06 22:00:00 34.5 10 Sudoeste 24 Oeste 0 989.7 1.4 25
2020-08-06 21:00:00 37 12 Oeste 24 Oeste 0 988.9 -- 22
2020-08-06 20:00:00 38.7 16 Oeste 25 Oeste 0 988.5 -- 20
2020-08-06 19:00:00 39.6 13 Oeste 21 Noroeste 0 988.3 -- 19
2020-08-06 18:00:00 39.6 11 Noroeste 18 Noroeste 0 988.4 -- 19
2020-08-06 17:00:00 38.9 10 Noroeste 21 Norte 0 988.8 -- 21
2020-08-06 16:00:00 38.2 14 Norte 24 Norte 0 989.4 -- 22
2020-08-06 15:00:00 37.5 12 Norte 21 Norte 0 989.8 -- 23
2020-08-06 14:00:00 36.1 8 Norte 16 Norte 0 990.2 -- 25
2020-08-06 13:00:00 34.6 9 Nordeste 15 Nordeste 0 990.5 -- 30
2020-08-06 12:00:00 31.3 6 Nordeste 13 Nordeste 0 990.9 -- 36
2020-08-06 11:00:00 29.2 9 Nordeste 13 Nordeste 0 990.9 -- 40
2020-08-06 10:00:00 26 5 Noroeste 9 Noroeste 0 990.7 -- 51
2020-08-06 09:00:00 24.5 5 Este 8 Este 0 990.4 -- 52
2020-08-06 08:00:00 21.2 0 Calma 5 Nordeste 0 989.7 -- 63
2020-08-06 07:00:00 22.1 3 Este 5 Sudeste 0 989.2 -- 51
2020-08-06 06:00:00 23 2 Norte 5 Oeste 0 988.8 -- 49
2020-08-06 05:00:00 24.8 3 Oeste 7 Oeste 0 988.5 -- 42
2020-08-06 04:00:00 26.1 6 Oeste 12 Oeste 0 988.3 -- 38
2020-08-06 03:00:00 27 4 Oeste 11 Sudoeste 0 988.2 -- 36
2020-08-06 02:00:00 29 6 Sudoeste 14 Oeste 0 988.3 -- 32
2020-08-06 01:00:00 29.9 10 Oeste 17 Sudoeste 0 988.2 -- 30
2020-08-06 00:00:00 31.1 9 Oeste 16 Oeste 0 987.8 -- 31
2020-08-05 23:00:00 33.3 4 Sudoeste 7 Sudoeste 0 987.3 -- 24
2020-08-05 22:00:00 34.6 4 Sudoeste 10 Oeste 0 986.8 -- 24
2020-08-05 21:00:00 37.2 8 Oeste 15 Oeste 0 986.5 -- 19
2020-08-05 20:00:00 38.6 7 Noroeste 14 Norte 0 986.4 -- 16
2020-08-05 19:00:00 39.2 9 Nordeste 17 Nordeste 0 986.6 -- 16
2020-08-05 18:00:00 39.1 10 Nordeste 17 Nordeste 0 987 -- 15
2020-08-05 17:00:00 39 7 Norte 19 Norte 0 987.4 -- 15
2020-08-05 16:00:00 39 8 Nordeste 18 Este 0 988.1 -- 14
2020-08-05 15:00:00 37.9 6 Nordeste 13 Norte 0 988.6 -- 17
2020-08-05 14:00:00 36 8 Norte 14 Norte 0 989.1 -- 21
2020-08-05 13:00:00 33.9 7 Norte 12 Nordeste 0 989.6 -- 24
2020-08-05 12:00:00 32.1 6 Norte 12 Norte 0 990.1 -- 26
2020-08-05 11:00:00 29 3 Norte 8 Noroeste 0 990.1 -- 33
2020-08-05 10:00:00 25.8 5 Noroeste 10 Noroeste 0 990 -- 44
2020-08-05 09:00:00 24.2 4 Oeste 8 Oeste 0 989.6 -- 49
2020-08-05 08:00:00 22 6 Oeste 11 Oeste 0 989.3 -- 56
2020-08-05 07:00:00 22.1 5 Oeste 10 Oeste 0 989 -- 56
2020-08-05 06:00:00 22.6 5 Oeste 15 Sudoeste 0 988.9 -- 55
2020-08-05 05:00:00 23.2 8 Oeste 13 Oeste 0 988.9 -- 54
2020-08-05 04:00:00 24 6 Oeste 13 Oeste 0 989.1 -- 51
2020-08-05 03:00:00 25.3 8 Oeste 14 Oeste 0 989.4 -- 48
2020-08-05 02:00:00 26.2 7 Oeste 17 Oeste 0 989.6 -- 45
2020-08-05 01:00:00 27.3 9 Oeste 19 Oeste 0 989.3 -- 43
2020-08-05 00:00:00 28.6 12 Oeste 23 Oeste 0 989.2 -- 42
2020-08-04 23:00:00 30.5 11 Oeste 24 Oeste 0 989.1 -- 32
2020-08-04 22:00:00 33.1 5 Oeste 9 Oeste 0 988.3 -- 23
2020-08-04 21:00:00 36.5 3 Oeste 12 Noroeste 0 988.2 -- 19
2020-08-04 20:00:00 37.6 5 Oeste 17 Noroeste 0 988.1 -- 16
2020-08-04 19:00:00 37.6 7 Oeste 15 Noroeste 0 988.4 -- 16
2020-08-04 18:00:00 37.7 8 Oeste 15 Noroeste 0 988.8 -- 16
2020-08-04 17:00:00 37.3 5 Noroeste 13 Nordeste 0 989.2 -- 18
2020-08-04 16:00:00 36.6 6 Nordeste 14 Este 0 989.8 -- 20
2020-08-04 15:00:00 34.9 6 Este 17 Nordeste 0 990.4 -- 21
2020-08-04 14:00:00 33 8 Nordeste 18 Nordeste 0 991.2 -- 27
2020-08-04 13:00:00 30.3 8 Nordeste 16 Nordeste 0 991.6 -- 35
2020-08-04 12:00:00 28.1 8 Este 12 Nordeste 0 991.8 -- 44
2020-08-04 11:00:00 24.9 5 Norte 12 Noroeste 0 991.9 -- 55
2020-08-04 10:00:00 22.4 8 Noroeste 13 Noroeste 0 992 -- 61
2020-08-04 09:00:00 20.6 8 Oeste 14 Sudoeste 0 991.9 -- 67
2020-08-04 08:00:00 18.4 6 Oeste 15 Oeste 0 991.7 -- 76
2020-08-04 07:00:00 17.9 8 Oeste 18 Oeste 0 991.5 -- 78
2020-08-04 06:00:00 18.4 6 Oeste 19 Noroeste 0 991.5 -- 75
2020-08-04 05:00:00 19 10 Oeste 21 Oeste 0 991.7 -- 72
2020-08-04 04:00:00 19.6 13 Oeste 22 Oeste 0 991.8 -- 69
2020-08-04 03:00:00 21 12 Oeste 22 Oeste 0 992.2 -- 64
2020-08-04 02:00:00 21.9 10 Oeste 25 Oeste 0 992.2 -- 62
2020-08-04 01:00:00 23 13 Oeste 24 Oeste 0 992.1 -- 58
2020-08-04 00:00:00 24.6 12 Oeste 34 Oeste 0 992.1 -- 54
2020-08-03 23:00:00 26.5 20 Oeste 36 Oeste 0 991.4 -- 48
2020-08-03 22:00:00 28.9 22 Oeste 39 Oeste 0 990.5 -- 37
2020-08-03 21:00:00 31.9 19 Oeste 33 Noroeste 0 990 -- 28
2020-08-03 20:00:00 35.1 15 Oeste 27 Oeste 0 989.7 -- 21
2020-08-03 19:00:00 35.8 18 Noroeste 27 Noroeste 0 990.1 -- 19
2020-08-03 18:00:00 36.2 15 Noroeste 32 Noroeste 0 990.3 -- 18
2020-08-03 17:00:00 36.2 20 Noroeste 36 Noroeste 0 990.7 -- 18
2020-08-03 16:00:00 35.3 15 Oeste 26 Oeste 0 991.6 -- 21
2020-08-03 15:00:00 33.9 11 Oeste 25 Noroeste 0 992.4 -- 22
2020-08-03 14:00:00 32.2 14 Noroeste 26 Noroeste 0 993.3 -- 25
2020-08-03 13:00:00 29.8 12 Oeste 23 Oeste 0 993.8 -- 31
2020-08-03 12:00:00 26.8 13 Oeste 25 Noroeste 0 994 -- 37
2020-08-03 11:00:00 23.7 13 Oeste 25 Oeste 0 994.4 -- 46
2020-08-03 10:00:00 20.9 12 Oeste 30 Oeste 0 994.6 -- 55
2020-08-03 09:00:00 18.3 15 Oeste 28 Oeste 0 994.5 -- 67
2020-08-03 08:00:00 17.6 12 Oeste 27 Oeste 0 994.4 -- 70
2020-08-03 07:00:00 17.8 12 Oeste 27 Oeste 0 994.5 -- 66
2020-08-03 06:00:00 18.6 13 Oeste 27 Oeste 0 993.9 -- 62
2020-08-03 05:00:00 19.2 12 Oeste 23 Oeste 0 994 -- 58
2020-08-03 04:00:00 19.9 13 Oeste 25 Oeste 0 994.1 -- 53
2020-08-03 03:00:00 20.6 15 Oeste 29 Oeste 0 994.2 -- 51
2020-08-03 02:00:00 22 15 Oeste 30 Oeste 0 994 -- 47
2020-08-03 01:00:00 22.9 14 Oeste 30 Sudoeste 0 994.2 -- 45
2020-08-03 00:00:00 24.4 13 Oeste 30 Oeste 0 993.9 -- 41
2020-08-02 23:00:00 26.3 14 Oeste 28 Oeste 0 993.5 -- 40
2020-08-02 22:00:00 28.7 14 Oeste 34 Oeste 0 993 -- 31
2020-08-02 21:00:00 31.4 17 Oeste 32 Oeste 0 992.4 -- 30
2020-08-02 20:00:00 34.4 18 Oeste 30 Oeste 0 991.9 -- 22
2020-08-02 19:00:00 36.1 13 Oeste 27 Oeste 0 992 -- 16
2020-08-02 18:00:00 36.4 10 Oeste 28 Noroeste 0 992.4 -- 16
2020-08-02 17:00:00 35.6 14 Oeste 24 Sudoeste 0 993 -- 20
2020-08-02 16:00:00 34.2 12 Oeste 27 Noroeste 0 993.7 -- 23
2020-08-02 15:00:00 32.4 9 Oeste 21 Noroeste 0 994.4 -- 28
2020-08-02 14:00:00 30.5 11 Oeste 30 Noroeste 0 995.1 -- 34
2020-08-02 13:00:00 28 10 Noroeste 18 Noroeste 0 995.8 -- 40
2020-08-02 12:00:00 25.1 10 Oeste 18 Noroeste 0 996 -- 46
2020-08-02 11:00:00 22.3 9 Oeste 20 Noroeste 0 996 -- 57
2020-08-02 10:00:00 19.8 13 Noroeste 19 Noroeste 0 996.4 -- 66
2020-08-02 09:00:00 18.5 8 Oeste 16 Oeste 0 996.2 -- 70
2020-08-02 08:00:00 16.5 9 Oeste 15 Oeste 0 995.9 -- 76
2020-08-02 07:00:00 16.8 8 Oeste 17 Noroeste 0 995.7 -- 73
2020-08-02 06:00:00 17.3 8 Oeste 19 Noroeste 0 995.7 -- 70
2020-08-02 05:00:00 17.7 8 Oeste 18 Oeste 0 995.7 -- 65
2020-08-02 04:00:00 19.5 8 Oeste 18 Sudoeste 0 995.4 -- 55
2020-08-02 03:00:00 20.5 12 Oeste 21 Oeste 0 995.8 -- 52
2020-08-02 02:00:00 22.1 10 Oeste 25 Oeste 0 996.1 -- 51
2020-08-02 01:00:00 23.9 15 Oeste 26 Oeste 0 996 -- 50
2020-08-02 00:00:00 26.4 17 Oeste 27 Oeste 0 995.6 -- 46
2020-08-01 23:00:00 28.9 14 Oeste 29 Oeste 0 995.3 -- 40
2020-08-01 22:00:00 31.3 15 Oeste 27 Oeste 0 994.4 -- 33
2020-08-01 21:00:00 34.4 15 Oeste 28 Oeste 0 993.8 -- 28
2020-08-01 20:00:00 37.2 14 Oeste 26 Noroeste 0 993.4 -- 24
2020-08-01 19:00:00 38.4 15 Oeste 28 Oeste 0 993.5 -- 21
2020-08-01 18:00:00 38.9 14 Oeste 28 Oeste 0 993.9 -- 17
2020-08-01 17:00:00 38.2 10 Oeste 25 Noroeste 0 994.5 -- 16
2020-08-01 16:00:00 37.1 16 Noroeste 29 Noroeste 0 995.2 -- 16
2020-08-01 15:00:00 35.4 11 Oeste 20 Noroeste 0 996.1 -- 21
2020-08-01 14:00:00 33 10 Oeste 16 Noroeste 0 996.5 -- 25
2020-08-01 13:00:00 29.9 6 Oeste 16 Noroeste 0 997.1 -- 33
2020-08-01 12:00:00 27.6 8 Noroeste 14 Noroeste 0 997 -- 38
2020-08-01 11:00:00 24.3 6 Noroeste 12 Noroeste 0 996.8 -- 54
2020-08-01 10:00:00 21.2 6 Oeste 13 Noroeste 0 996.8 -- 65
2020-08-01 09:00:00 18.6 9 Oeste 18 Noroeste 0 996.9 -- 74
2020-08-01 08:00:00 16.6 5 Oeste 19 Oeste 0 996.4 -- 73
2020-08-01 07:00:00 16.5 11 Noroeste 17 Oeste 0 996.2 -- 67
2020-08-01 06:00:00 18.4 2 Sudoeste 13 Oeste 0 995.7 -- 53
2020-08-01 05:00:00 20.5 6 Oeste 13 Oeste 0 995.4 -- 45
2020-08-01 04:00:00 22 6 Sudoeste 11 Oeste 0 995.3 -- 43
2020-08-01 03:00:00 23.9 6 Oeste 20 Oeste 0 995 -- 38
2020-08-01 02:00:00 25 9 Sudoeste 19 Oeste 0 995.1 -- 35
2020-08-01 01:00:00 26.9 11 Oeste 22 Oeste 0 994.9 -- 31
2020-08-01 00:00:00 27.8 15 Oeste 27 Noroeste 0 994.2 -- 31
2020-07-31 23:00:00 31.7 10 Oeste 19 Oeste 0 993.2 -- 24
2020-07-31 22:00:00 32.8 12 Oeste 17 Oeste 0 992.3 -- 27
2020-07-31 21:00:00 36.2 9 Oeste 19 Noroeste 0 991.7 -- 23
2020-07-31 20:00:00 39 8 Oeste 19 Sudoeste 0 991.5 -- 16
2020-07-31 19:00:00 39.7 12 Oeste 24 Oeste 0 991.6 -- 11
2020-07-31 18:00:00 39 15 Noroeste 27 Noroeste 0 991.8 -- 13
2020-07-31 17:00:00 37.6 10 Norte 18 Nordeste 0 992.3 -- 18
2020-07-31 16:00:00 36.8 9 Norte 21 Nordeste 0 992.8 -- 22
2020-07-31 15:00:00 36 7 Nordeste 21 Este 0 993.1 -- 23
2020-07-31 14:00:00 34.9 6 Nordeste 19 Norte 0 993.5 -- 25
2020-07-31 13:00:00 33.3 7 Norte 15 Noroeste 0 993.8 -- 32
2020-07-31 12:00:00 30.9 6 Norte 11 Nordeste 0 993.9 -- 36
2020-07-31 11:00:00 28.4 3 Nordeste 10 Este 0 994 -- 42
2020-07-31 10:00:00 25.9 5 Nordeste 9 Nordeste 0 993.7 -- 48
2020-07-31 09:00:00 23.6 4 Nordeste 6 Nordeste 0 993.4 -- 54
2020-07-31 08:00:00 20.8 3 Sudeste 5 Este 0 993.2 -- 60
2020-07-31 07:00:00 21.2 0 Calma 5 Oeste 0 992.8 -- 59
2020-07-31 06:00:00 21.9 2 Oeste 8 Sudoeste 0 992.4 -- 55
2020-07-31 05:00:00 23.4 4 Sudoeste 12 Sudoeste 0 992 -- 49
2020-07-31 04:00:00 24.6 4 Sudoeste 8 Sudoeste 0 992 -- 42
2020-07-31 03:00:00 25.1 4 Sudoeste 12 Oeste 0 992.1 -- 41
2020-07-31 02:00:00 26.5 6 Sudoeste 15 Oeste 0 992.4 -- 39
2020-07-31 01:00:00 28.3 7 Oeste 18 Oeste 0 992.1 -- 39
2020-07-31 00:00:00 30.1 10 Oeste 17 Oeste 0 991.6 -- 36
2020-07-30 23:00:00 31.2 4 Sudoeste 17 Oeste 0 991 -- 29
2020-07-30 22:00:00 33.6 8 Oeste 15 Oeste 0 989.8 -- 24
2020-07-30 21:00:00 35.7 8 Oeste 23 Oeste 0 989.2 -- 23
2020-07-30 20:00:00 37.6 8 Oeste 27 Oeste 0 988.8 -- 21
2020-07-30 19:00:00 38.5 10 Oeste 30 Noroeste 0 988.9 -- 17
2020-07-30 18:00:00 38.3 14 Oeste 31 Oeste 0 989.2 -- 20
2020-07-30 17:00:00 37.7 10 Sudoeste 30 Noroeste 0 989.5 -- 24
2020-07-30 16:00:00 37.5 12 Oeste 27 Noroeste 0 989.9 -- 25
2020-07-30 15:00:00 36.8 9 Sudoeste 23 Sur 0 990.1 -- 25
2020-07-30 14:00:00 35.8 9 Sur 23 Oeste 0 990.7 -- 31
2020-07-30 13:00:00 34.6 6 Sudoeste 21 Sur 0 991.1 -- 33
2020-07-30 12:00:00 33 7 Sudoeste 18 Sudoeste 0 991.3 -- 37
2020-07-30 11:00:00 30.9 9 Oeste 17 Oeste 0 991.2 -- 39
2020-07-30 10:00:00 27 4 Norte 8 Noroeste 0 991.2 -- 50
2020-07-30 09:00:00 24.4 5 Noroeste 8 Noroeste 0 990.9 -- 54
2020-07-30 08:00:00 22.3 6 Oeste 9 Noroeste 0 990.4 -- 63
2020-07-30 07:00:00 22.8 5 Norte 8 Noroeste 0 989.9 -- 57
2020-07-30 06:00:00 23.9 2 Noroeste 12 Sudoeste 0 989.7 -- 51
2020-07-30 05:00:00 24.6 5 Sudoeste 10 Sudoeste 0 989.2 -- 46
2020-07-30 04:00:00 25.1 5 Sudoeste 11 Oeste 0 989.3 -- 42
2020-07-30 03:00:00 26.5 5 Oeste 12 Sur 0 989.2 -- 38
2020-07-30 02:00:00 28.2 6 Oeste 13 Oeste 0 989.8 -- 35
2020-07-30 01:00:00 29.4 6 Sudoeste 15 Oeste 0 990 -- 30
2020-07-30 00:00:00 31.1 6 Sudoeste 21 Oeste 0 989.5 -- 25
2020-07-29 23:00:00 33.1 9 Oeste 18 Oeste 0 988.3 -- 22
2020-07-29 22:00:00 34.9 8 Oeste 15 Oeste 0 987.6 -- 22
2020-07-29 21:00:00 37.8 6 Oeste 13 Oeste 0 987.2 -- 17
2020-07-29 20:00:00 39.1 10 Noroeste 18 Noroeste 0 987.2 -- 14
2020-07-29 19:00:00 39.3 12 Noroeste 22 Noroeste 0 987.5 -- 15
2020-07-29 18:00:00 39.4 12 Noroeste 22 Noroeste 0 988.1 -- 15
2020-07-29 17:00:00 39 8 Oeste 17 Noroeste 0 988.8 -- 18
2020-07-29 16:00:00 37.8 7 Oeste 18 Norte 0 989.6 -- 20
2020-07-29 15:00:00 36.3 9 Norte 15 Norte 0 990.2 -- 24
2020-07-29 14:00:00 34 7 Norte 14 Noroeste 0 991.1 -- 25
2020-07-29 13:00:00 31 4 Sudoeste 9 Noroeste 0 991.6 -- 31
2020-07-29 12:00:00 26.9 5 Oeste 13 Oeste 0 991.9 -- 51
2020-07-29 11:00:00 23.7 6 Oeste 12 Noroeste 0 992.1 -- 61
2020-07-29 10:00:00 21 6 Oeste 12 Noroeste 0 992.1 -- 70
2020-07-29 09:00:00 18.8 6 Oeste 10 Oeste 0 992 -- 80
2020-07-29 08:00:00 17.1 5 Oeste 9 Noroeste 0 991.6 -- 86
2020-07-29 07:00:00 17.1 6 Noroeste 12 Oeste 0 991.4 -- 86
2020-07-29 06:00:00 18.2 6 Oeste 14 Noroeste 0 991.1 -- 82
2020-07-29 05:00:00 19.3 9 Oeste 16 Oeste 0 991.3 -- 76
2020-07-29 04:00:00 19.7 8 Oeste 15 Oeste 0 991.4 -- 74
2020-07-29 03:00:00 20.9 9 Oeste 18 Oeste 0 991.7 -- 67
2020-07-29 02:00:00 22.6 9 Oeste 22 Oeste 0 991.7 -- 61
2020-07-29 01:00:00 24.5 12 Oeste 22 Noroeste 0 991.6 -- 54
2020-07-29 00:00:00 26.3 13 Oeste 27 Oeste 0 991.6 -- 48
2020-07-28 23:00:00 28.9 15 Oeste 24 Noroeste 0 991.1 -- 39
2020-07-28 22:00:00 31 10 Oeste 18 Oeste 0 990.5 -- 34
2020-07-28 21:00:00 33.9 12 Oeste 21 Noroeste 0 990.3 -- 31
2020-07-28 20:00:00 36.5 10 Oeste 22 Noroeste 0 990.3 -- 22
2020-07-28 19:00:00 37 14 Noroeste 21 Noroeste 0 990.6 -- 22
2020-07-28 18:00:00 36.6 14 Noroeste 26 Oeste 0 991.1 -- 23
2020-07-28 17:00:00 35.6 16 Noroeste 24 Noroeste 0 991.4 -- 25
2020-07-28 16:00:00 34.5 9 Noroeste 22 Noroeste 0 992 -- 31
2020-07-28 15:00:00 32.9 6 Sudoeste 17 Sudoeste 0 992.6 -- 34
2020-07-28 14:00:00 30.8 6 Sudoeste 18 Oeste 0 993.3 -- 41
2020-07-28 13:00:00 29 6 Sudoeste 18 Sudoeste 0 993.6 -- 46
2020-07-28 12:00:00 26.6 8 Oeste 17 Oeste 0 993.9 -- 53
2020-07-28 11:00:00 24.4 8 Sudoeste 17 Oeste 0 994.1 -- 61
2020-07-28 10:00:00 22.6 6 Sudoeste 15 Sudoeste 0 994.2 -- 68
2020-07-28 09:00:00 20.4 9 Oeste 16 Oeste 0 994.2 -- 77
2020-07-28 08:00:00 19.1 6 Oeste 12 Oeste 0 993.8 -- 82
2020-07-28 07:00:00 19 4 Sudoeste 13 Oeste 0 993.5 -- 82
2020-07-28 06:00:00 19.3 8 Oeste 15 Oeste 0 993.4 -- 80
2020-07-28 05:00:00 19.9 5 Sudoeste 10 Sudoeste 0 993.4 -- 77
2020-07-28 04:00:00 20.6 7 Oeste 21 Oeste 0 993.3 -- 74
2020-07-28 03:00:00 20.9 12 Oeste 21 Oeste 0 993.5 -- 73
2020-07-28 02:00:00 22.1 12 Oeste 23 Oeste 0 993.7 -- 68
2020-07-28 01:00:00 24.4 12 Oeste 31 Oeste 0 993.7 -- 59
2020-07-28 00:00:00 26 19 Oeste 31 Noroeste 0 993.2 -- 54
2020-07-27 23:00:00 28.7 14 Oeste 27 Oeste 0 992.5 -- 43
2020-07-27 22:00:00 30.4 17 Oeste 32 Oeste 0 991.5 -- 39
2020-07-27 21:00:00 35.1 11 Oeste 17 Oeste 0 990.6 -- 29
2020-07-27 20:00:00 36 8 Sudoeste 32 Noroeste 0 990.4 -- 27
2020-07-27 19:00:00 35.5 15 Oeste 24 Oeste 0 990.6 -- 29
2020-07-27 18:00:00 36.6 15 Oeste 28 Oeste 0 990.9 -- 28
2020-07-27 17:00:00 36.2 15 Noroeste 26 Oeste 0 991 -- 26
2020-07-27 16:00:00 37.1 13 Oeste 29 Noroeste 0 991.4 -- 26
2020-07-27 15:00:00 35.7 16 Noroeste 30 Noroeste 0 991.7 -- 31
2020-07-27 14:00:00 34.1 17 Noroeste 26 Noroeste 0 992.3 -- 34
2020-07-27 13:00:00 32.1 14 Norte 20 Noroeste 0 992.9 -- 37
2020-07-27 12:00:00 30.2 8 Norte 14 Norte 0 993 -- 40
2020-07-27 09:00:00 23.1 2 Nordeste 8 Noroeste 0 992.4 1.4 58
2020-07-27 08:00:00 20.6 6 Noroeste 8 Noroeste 0 991.7 0.7 69
2020-07-27 07:00:00 21 6 Oeste 13 Noroeste 0 991.3 0.6 70
2020-07-27 06:00:00 22.2 10 Noroeste 16 Oeste 0 991 0.4 66
2020-07-27 05:00:00 23.7 6 Oeste 13 Oeste 0 991 0.4 58
2020-07-27 04:00:00 24.8 5 Oeste 18 Oeste 0 990.7 0.4 56
2020-07-27 03:00:00 26.2 12 Oeste 17 Oeste 0 990.6 0.5 52
2020-07-27 02:00:00 27.9 8 Oeste 14 Oeste 0 990.6 1.4 47
2020-07-27 01:00:00 28.8 8 Oeste 18 Noroeste 0 990.3 1.9 40
2020-07-27 00:00:00 30.5 11 Oeste 18 Oeste 0 990.1 1.9 32
2020-07-26 23:00:00 32.9 11 Oeste 18 Oeste 0 989.2 1 24
2020-07-26 22:00:00 35.4 6 Oeste 10 Oeste 0 988.4 -0.2 25
2020-07-26 21:00:00 38.8 4 Norte 12 Norte 0 988.2 -0.9 15
2020-07-26 20:00:00 39.9 8 Norte 14 Norte 0 988.2 -1.4 13
2020-07-26 19:00:00 40.5 9 Noroeste 21 Noroeste 0 988.6 -1.8 12
2020-07-26 18:00:00 40.6 10 Noroeste 20 Noroeste 0 989.1 -1.9 13
2020-07-26 17:00:00 39.9 10 Noroeste 19 Norte 0 989.6 -2.1 13
2020-07-26 16:00:00 39.2 8 Norte 15 Norte 0 990.4 -1.9 13
2020-07-26 15:00:00 37 7 Norte 15 Norte 0 991 -1.6 19
2020-07-26 14:00:00 34.7 7 Norte 12 Norte 0 991.7 -1 23
2020-07-26 13:00:00 31.9 5 Este 13 Este 0 992.3 -0.3 28
2020-07-26 12:00:00 29.1 6 Nordeste 11 Norte 0 992.6 0.3 37
2020-07-26 11:00:00 25.6 4 Norte 10 Norte 0 992.7 0.8 45
2020-07-26 10:00:00 22.3 6 Noroeste 16 Oeste 0 992.6 -- 57
2020-07-26 09:00:00 20 10 Oeste 18 Oeste 0 992.3 -- 65
2020-07-26 08:00:00 18.5 10 Oeste 17 Oeste 0 991.9 -- 68
2020-07-26 07:00:00 18.9 8 Oeste 16 Oeste 0 991.9 -- 65
2020-07-26 06:00:00 19.3 9 Oeste 17 Oeste 0 991.5 -- 62
2020-07-26 05:00:00 19.6 10 Oeste 16 Oeste 0 991.4 -- 61
2020-07-26 04:00:00 21.5 6 Oeste 21 Oeste 0 991.3 -- 52
2020-07-26 03:00:00 22.5 9 Oeste 21 Oeste 0 991.5 -- 48
2020-07-26 02:00:00 23.6 11 Oeste 21 Oeste 0 991.7 -- 45
2020-07-26 01:00:00 24.6 14 Oeste 24 Oeste 0 991.8 -- 43
2020-07-26 00:00:00 27 16 Oeste 26 Noroeste 0 991.3 -- 38
2020-07-25 23:00:00 30.7 11 Oeste 21 Oeste 0 990.4 -- 20
2020-07-25 22:00:00 31.8 13 Oeste 22 Oeste 0 989.5 -- 25
2020-07-25 21:00:00 34.8 13 Oeste 21 Oeste 0 989 -- 24
2020-07-25 20:00:00 38.4 13 Oeste 26 Noroeste 0 988.8 -- 12
2020-07-25 19:00:00 39 16 Noroeste 27 Noroeste 0 989.1 -- 11
2020-07-25 18:00:00 39.3 14 Noroeste 26 Noroeste 0 989.5 -- 12
2020-07-25 17:00:00 39 15 Oeste 30 Noroeste 0 989.9 -- 13
2020-07-25 16:00:00 38.7 17 Noroeste 30 Noroeste 0 990.4 -- 12
2020-07-25 15:00:00 36.7 10 Noroeste 22 Noroeste 0 991.1 -- 18
2020-07-25 14:00:00 34.3 9 Noroeste 18 Norte 0 991.8 -- 25
2020-07-25 13:00:00 31.4 7 Noroeste 17 Noroeste 0 992.2 -- 32
2020-07-25 12:00:00 29.4 4 Oeste 11 Oeste 0 992.3 -- 40
2020-07-25 11:00:00 25.6 5 Oeste 12 Oeste 0 992.2 -- 53
2020-07-25 10:00:00 22.4 7 Oeste 13 Noroeste 0 992.4 -- 60
2020-07-25 09:00:00 20.4 6 Oeste 12 Oeste 0 992.2 -- 66
2020-07-25 08:00:00 18.3 5 Oeste 12 Oeste 0 991.6 -- 71
2020-07-25 07:00:00 18 6 Oeste 8 Oeste 0 991.6 -- 69
2020-07-25 06:00:00 18.7 5 Sudoeste 9 Oeste 0 991.4 -- 60
2020-07-25 05:00:00 19.6 5 Sudoeste 11 Oeste 0 991.5 -- 55
2020-07-25 04:00:00 20.7 5 Oeste 14 Oeste 0 991.6 -- 53
2020-07-25 03:00:00 21.3 9 Oeste 14 Oeste 0 991.9 -- 55
2020-07-25 02:00:00 23 11 Oeste 19 Noroeste 0 992 -- 47
2020-07-25 01:00:00 24.4 10 Oeste 20 Oeste 0 992 -- 41
2020-07-25 00:00:00 26.1 11 Oeste 23 Noroeste 0 991.8 -- 36
2020-07-24 23:00:00 27.7 13 Oeste 23 Oeste 0 991.3 -- 31
2020-07-24 22:00:00 30 12 Oeste 22 Oeste 0 990.6 -- 27
2020-07-24 21:00:00 33.4 15 Oeste 26 Oeste 0 990.1 -- 19
2020-07-24 20:00:00 37.2 15 Oeste 26 Oeste 0 989.8 -- 13
2020-07-24 19:00:00 38.4 14 Oeste 27 Noroeste 0 989.8 -- 13
2020-07-24 18:00:00 38.4 14 Noroeste 23 Oeste 0 990.2 -- 13
2020-07-24 17:00:00 38 10 Noroeste 22 Noroeste 0 990.6 -- 16
2020-07-24 16:00:00 37.4 11 Noroeste 26 Noroeste 0 991.2 -- 18
2020-07-24 15:00:00 35.9 8 Oeste 19 Oeste 0 991.7 -- 25
2020-07-24 14:00:00 34.1 9 Noroeste 19 Noroeste 0 992.3 -- 27
2020-07-24 13:00:00 32 7 Noroeste 16 Noroeste 0 992.8 -- 31
2020-07-24 12:00:00 29.3 9 Noroeste 16 Noroeste 0 993 -- 38
2020-07-24 11:00:00 26.8 4 Oeste 11 Oeste 0 993 -- 46
2020-07-24 10:00:00 23.6 5 Oeste 15 Noroeste 0 993 -- 57
2020-07-24 09:00:00 20.6 11 Oeste 18 Noroeste 0 993 -- 66
2020-07-24 08:00:00 18.9 9 Oeste 19 Oeste 0 992.7 -- 73
2020-07-24 07:00:00 19.3 8 Oeste 15 Oeste 0 992.4 -- 71
2020-07-24 06:00:00 19.8 8 Oeste 15 Oeste 0 992.2 -- 71
2020-07-24 05:00:00 21.2 8 Oeste 18 Oeste 0 992.4 -- 69
2020-07-24 04:00:00 22.3 10 Oeste 21 Oeste 0 992.5 -- 66
2020-07-24 03:00:00 24.3 10 Oeste 21 Oeste 0 992.8 -- 56
2020-07-24 02:00:00 25.7 10 Oeste 21 Oeste 0 993 -- 50
2020-07-24 01:00:00 26.8 9 Oeste 24 Oeste 0 993 -- 49
2020-07-24 00:00:00 29.3 13 Oeste 25 Oeste 0 992.8 -- 42
2020-07-23 23:00:00 31.2 12 Oeste 32 Oeste 0 992.3 -- 35
2020-07-23 22:00:00 32.1 10 Oeste 20 Oeste 0 991.7 -- 28
2020-07-23 21:00:00 34.7 12 Oeste 23 Noroeste 0 991.3 -- 25
2020-07-23 20:00:00 37.7 12 Oeste 25 Noroeste 0 991.1 -- 19
2020-07-23 19:00:00 38.5 13 Oeste 25 Noroeste 0 991.3 -- 19
2020-07-23 18:00:00 38.4 13 Oeste 25 Oeste 0 991.8 -- 19
2020-07-23 17:00:00 38.4 12 Noroeste 23 Noroeste 0 992.3 -- 19
2020-07-23 16:00:00 37.8 9 Noroeste 21 Noroeste 0 993 -- 20
2020-07-23 15:00:00 37.2 13 Noroeste 26 Noroeste 0 993.6 -- 21
2020-07-23 14:00:00 36.1 12 Oeste 21 Noroeste 0 994.2 -- 27
2020-07-23 13:00:00 33.1 9 Oeste 18 Noroeste 0 994.8 -- 34
2020-07-23 12:00:00 30.8 9 Noroeste 15 Noroeste 0 994.9 -- 37
2020-07-23 11:00:00 28.1 9 Noroeste 15 Noroeste 0 995 -- 43
2020-07-23 10:00:00 26.5 6 Oeste 16 Oeste 0 995.2 -- 48
2020-07-23 09:00:00 24.5 8 Oeste 19 Oeste 0 995.2 -- 53
2020-07-23 08:00:00 22.3 5 Sudoeste 13 Oeste 0 995 -- 58
2020-07-23 07:00:00 21.5 7 Noroeste 10 Oeste 0 994.5 -- 60
2020-07-23 06:00:00 22.8 3 Sudoeste 15 Oeste 0 994.6 -- 56
2020-07-23 05:00:00 23.7 8 Oeste 16 Oeste 0 994.4 -- 51
2020-07-23 04:00:00 24.6 9 Oeste 15 Sudoeste 0 994.5 -- 50
2020-07-23 03:00:00 24.9 9 Oeste 15 Oeste 0 994.9 -- 49
2020-07-23 02:00:00 25.4 9 Oeste 18 Oeste 0 995 -- 47
2020-07-23 01:00:00 26.7 12 Oeste 19 Oeste 0 995 -- 44
2020-07-23 00:00:00 27.9 11 Oeste 22 Sudoeste 0 994.6 -- 41
2020-07-22 23:00:00 29.5 3 Sur 9 Oeste 0 994 -- 40
2020-07-22 22:00:00 32.1 2 Sudoeste 10 Norte 0 993.2 -- 35
2020-07-22 21:00:00 34.4 6 Noroeste 13 Noroeste 0 993.2 -- 26
2020-07-22 20:00:00 35.3 9 Nordeste 14 Nordeste 0 993.2 -- 25
2020-07-22 19:00:00 35.8 5 Oeste 18 Noroeste 0 993.4 -- 23
2020-07-22 18:00:00 35.7 5 Norte 20 Oeste 0 993.7 -- 24
2020-07-22 17:00:00 35.4 10 Noroeste 19 Noroeste 0 994.2 -- 26
2020-07-22 16:00:00 34.1 6 Oeste 18 Noroeste 0 994.6 -- 32
2020-07-22 15:00:00 32.8 13 Noroeste 22 Noroeste 0 995.1 -- 32
2020-07-22 14:00:00 31.6 9 Nordeste 18 Norte 0 995.5 -- 38
2020-07-22 13:00:00 29.9 5 Sudoeste 14 Sudoeste 0 995.9 -- 44
2020-07-22 12:00:00 28.3 5 Noroeste 13 Noroeste 0 996.1 -- 52
2020-07-22 11:00:00 26.6 6 Oeste 15 Sudoeste 0 996.1 -- 61
2020-07-22 10:00:00 24.4 6 Sudoeste 13 Oeste 0 996.1 -- 69
2020-07-22 09:00:00 22.4 5 Oeste 12 Noroeste 0 995.6 -- 79
2020-07-22 08:00:00 20.3 6 Oeste 9 Noroeste 0 995.2 -- 91
2020-07-22 07:00:00 20.8 6 Oeste 12 Sudoeste 0 994.5 -- 89
2020-07-22 06:00:00 20.9 3 Este 10 Este 0 994.1 -- 92
2020-07-22 05:00:00 21.3 3 Sudoeste 10 Noroeste 0 994 -- 91
2020-07-22 04:00:00 21.6 7 Nordeste 14 Este 0 994.2 -- 90
2020-07-22 03:00:00 22.2 6 Este 11 Este 2 994.8 -- 86
2020-07-22 02:00:00 22.5 5 Sudeste 13 Este 0 994.7 -- 80
2020-07-22 01:00:00 22.9 4 Nordeste 6 Oeste 0 994.3 -- 77
2020-07-22 00:00:00 22.9 3 Norte 9 Noroeste 0 994 -- 77
2020-07-21 23:00:00 23.7 4 Sudoeste 13 Sur 0 993 -- 72
2020-07-21 22:00:00 24.4 7 Sudeste 14 Este 0 992.8 -- 69
2020-07-21 21:00:00 25.9 10 Este 19 Sudeste 0 991.9 -- 62
2020-07-21 20:00:00 27.1 5 Este 17 Norte 0 992.3 -- 52
2020-07-21 19:00:00 26.6 10 Nordeste 22 Nordeste 0 992.4 -- 56
2020-07-21 18:00:00 28.2 20 Nordeste 31 Nordeste 0 992.6 -- 51
2020-07-21 17:00:00 29.9 23 Nordeste 31 Nordeste 0 992.8 -- 49
2020-07-21 16:00:00 29.3 17 Norte 25 Norte 0 993.1 -- 42
2020-07-21 15:00:00 28.9 11 Nordeste 18 Nordeste 0 993.3 -- 46
2020-07-21 14:00:00 27.8 8 Nordeste 18 Nordeste 0 992.8 -- 52
2020-07-21 13:00:00 28 4 Sudeste 19 Este 0.2 993.6 -- 48
2020-07-21 12:00:00 28.7 3 Nordeste 8 Este 1.6 992.6 -- 40
2020-07-21 11:00:00 28.2 3 Sur 10 Norte 0 992.7 -- 42
2020-07-21 10:00:00 26.9 4 Noroeste 10 Noroeste 0 992.4 -- 49
2020-07-21 09:00:00 23.8 7 Norte 19 Oeste 0 992.1 -- 60
2020-07-21 08:00:00 25.8 8 Sudoeste 20 Sudoeste 0 991.2 -- 47
2020-07-21 07:00:00 24.7 4 Sudoeste 8 Sur 0 990.7 -- 49
2020-07-21 06:00:00 25 3 Oeste 11 Noroeste 0 989.9 -- 47
2020-07-21 05:00:00 25.4 3 Oeste 10 Sur 0 990.3 -- 40
2020-07-21 04:00:00 25.3 7 Oeste 19 Sudoeste 0 989.5 -- 44
2020-07-21 03:00:00 25.9 4 Sudeste 8 Sur 0 989.2 -- 28
2020-07-21 02:00:00 26.9 4 Sur 10 Noroeste 0 989.3 -- 30
2020-07-21 01:00:00 28.9 2 Sur 6 Nordeste 0 989.6 -- 25
2020-07-21 00:00:00 30.5 4 Este 7 Sudeste 0 989.6 -- 20
2020-07-20 23:00:00 32 0 Calma 14 Norte 0 989.2 -- 18
2020-07-20 22:00:00 33.7 11 Norte 18 Norte 0 988.5 -- 19
2020-07-20 21:00:00 37.9 5 Noroeste 12 Noroeste 0 988.5 -- 14
2020-07-20 20:00:00 38.4 9 Noroeste 18 Oeste 0 988.6 -- 10
2020-07-20 19:00:00 38.8 9 Noroeste 18 Oeste 0 989 -- 10
2020-07-20 18:00:00 39.4 12 Noroeste 20 Noroeste 0 989.7 -- 10
2020-07-20 17:00:00 39.1 10 Noroeste 23 Noroeste 0 990.2 -- 11
2020-07-20 16:00:00 38.3 11 Noroeste 21 Noroeste 0 990.9 -- 16
2020-07-20 15:00:00 37.7 12 Oeste 23 Noroeste 0 991.3 -- 16
2020-07-20 14:00:00 36 8 Oeste 16 Noroeste 0 991.8 -- 19
2020-07-20 13:00:00 33.8 10 Noroeste 16 Noroeste 0 992.5 -- 24
2020-07-20 12:00:00 30.7 3 Nordeste 10 Norte 0 992.6 -- 33
2020-07-20 11:00:00 27.9 5 Este 9 Nordeste 0 992.4 -- 43
2020-07-20 10:00:00 24.8 4 Norte 8 Este 0 992 -- 50
2020-07-20 09:00:00 22.8 5 Este 8 Este 0 991.9 -- 51
2020-07-20 08:00:00 19.6 4 Oeste 8 Sur 0 991.7 -- 56
2020-07-20 07:00:00 19.7 5 Sudeste 9 Noroeste 0 991.8 -- 57
2020-07-20 06:00:00 21.2 7 Oeste 9 Oeste 0 991.5 -- 47
2020-07-20 05:00:00 22.4 3 Sudoeste 7 Sudoeste 0 991.5 -- 40
2020-07-20 04:00:00 23.3 4 Sur 9 Oeste 0 991.5 -- 41
2020-07-20 03:00:00 24 5 Sudoeste 11 Sudoeste 0 991.9 -- 33
2020-07-20 02:00:00 25.5 5 Sudoeste 11 Oeste 0 991.8 -- 35
2020-07-20 01:00:00 27.1 6 Sudoeste 11 Oeste 0 991.8 -- 32
2020-07-20 00:00:00 28.3 6 Oeste 12 Oeste 0 991.9 -- 27
2020-07-19 23:00:00 30.2 8 Oeste 11 Oeste 0 991.6 -- 23
2020-07-19 22:00:00 31.5 5 Oeste 14 Oeste 0 990.9 -- 20
2020-07-19 21:00:00 33.6 11 Oeste 26 Noroeste 0 990.6 -- 20
2020-07-19 20:00:00 36.5 17 Noroeste 25 Noroeste 0 990.4 -- 16
2020-07-19 19:00:00 38.2 15 Oeste 32 Oeste 0 990.6 -- 10
2020-07-19 18:00:00 38.8 15 Oeste 32 Oeste 0 991.2 -- 9
2020-07-19 17:00:00 38.6 13 Oeste 28 Oeste 0 991.5 -- 10
2020-07-19 16:00:00 37.7 10 Oeste 28 Oeste 0 991.8 -- 13
2020-07-19 15:00:00 36.5 10 Sudoeste 23 Oeste 0 992.3 -- 15
2020-07-19 14:00:00 34.9 11 Oeste 25 Oeste 0 992.8 -- 16
2020-07-19 13:00:00 33 9 Sudoeste 22 Oeste 0 993.1 -- 21
2020-07-19 12:00:00 30.8 10 Oeste 18 Oeste 0 993.2 0.2 28
2020-07-19 11:00:00 27.7 9 Oeste 17 Oeste 0 993 0.3 41
2020-07-19 10:00:00 25.1 7 Oeste 14 Oeste 0 993 0.7 47
2020-07-19 09:00:00 23.2 6 Oeste 15 Oeste 0 993 1.2 53
2020-07-19 08:00:00 20.8 8 Oeste 14 Oeste 0 992.7 -- 58
2020-07-19 07:00:00 20.6 6 Sudoeste 15 Sudoeste 0 992.3 -- 58
2020-07-19 06:00:00 21.6 5 Sudoeste 10 Sudoeste 0 991.8 -- 54
2020-07-19 05:00:00 23.3 6 Oeste 14 Oeste 0 992 -- 48
2020-07-19 04:00:00 24.4 6 Oeste 14 Oeste 0 992.2 -- 42
2020-07-19 03:00:00 25.6 6 Oeste 17 Sudoeste 0 992.3 -- 37
2020-07-19 02:00:00 27.1 7 Oeste 15 Oeste 0 992.5 -- 28
2020-07-19 01:00:00 28.8 9 Sudoeste 19 Oeste 0 992.2 -- 23
2020-07-19 00:00:00 30.2 8 Sudoeste 17 Oeste 0 992 -- 21
2020-07-18 23:00:00 32.1 10 Oeste 24 Oeste 0 991.4 -- 22
2020-07-18 22:00:00 34.5 11 Oeste 30 Oeste 0 990.6 -- 20
2020-07-18 21:00:00 37 16 Oeste 37 Oeste 0 989.8 -- 17
2020-07-18 20:00:00 39.4 18 Oeste 36 Sudoeste 0 989 -- 17
2020-07-18 19:00:00 40.7 5 Sudoeste 22 Noroeste 0 989.1 -- 14
2020-07-18 18:00:00 40.4 12 Noroeste 24 Noroeste 0 989.5 -- 13
2020-07-18 17:00:00 40.1 16 Noroeste 30 Oeste 0 989.8 -- 15
2020-07-18 16:00:00 39.3 13 Noroeste 22 Noroeste 0 990.3 -- 13
2020-07-18 15:00:00 38 12 Noroeste 22 Noroeste 0 990.8 -- 14
2020-07-18 14:00:00 36.4 13 Noroeste 23 Noroeste 0 991.4 -- 18
2020-07-18 13:00:00 34.9 5 Sudoeste 14 Noroeste 0 991.8 -- 21
2020-07-18 12:00:00 33.5 5 Nordeste 10 Nordeste 0 991.9 -- 23
2020-07-18 11:00:00 30.9 3 Sudoeste 10 Nordeste 0 991.9 -- 24
2020-07-18 10:00:00 27.8 6 Oeste 12 Oeste 0 991.9 -- 35
2020-07-18 09:00:00 25.4 5 Oeste 10 Oeste 0 991.3 -- 46
2020-07-18 08:00:00 23.3 4 Sudoeste 10 Sudoeste 0 991 -- 49
2020-07-18 07:00:00 22.7 4 Sudoeste 10 Sudoeste 0 990.7 -- 49
2020-07-18 06:00:00 23.7 7 Oeste 10 Oeste 0 990.5 -- 46
2020-07-18 05:00:00 24.6 5 Oeste 10 Sudoeste 0 990.5 -- 43
2020-07-18 04:00:00 26 6 Oeste 14 Sudoeste 0 990.5 -- 39
2020-07-18 03:00:00 27.2 8 Sudoeste 13 Oeste 0 990.7 -- 38
2020-07-18 02:00:00 28.7 5 Sudoeste 14 Sudoeste 0 990.7 -- 36
2020-07-18 01:00:00 30.6 5 Sudoeste 13 Oeste 0 990.6 -- 33
2020-07-18 00:00:00 31.1 8 Noroeste 21 Oeste 0 990.4 -- 33
2020-07-17 23:00:00 34.1 15 Oeste 33 Oeste 0 989.7 -- 28
2020-07-17 22:00:00 34.6 9 Norte 15 Norte 0 988.9 -- 27
2020-07-17 21:00:00 39.2 5 Oeste 11 Oeste 0 988.6 -- 16
2020-07-17 20:00:00 41.2 7 Oeste 18 Sudoeste 0 988.7 -- 14
2020-07-17 19:00:00 40.8 7 Sudoeste 20 Sur 0 989 -- 14
2020-07-17 18:00:00 40.8 9 Oeste 19 Noroeste 0 989.6 -- 14
2020-07-17 17:00:00 40 8 Norte 17 Norte 0 990.2 -- 15
2020-07-17 16:00:00 39 7 Nordeste 18 Nordeste 0 990.8 -- 16
2020-07-17 15:00:00 37.8 10 Norte 17 Norte 0 991.4 -- 19
2020-07-17 14:00:00 36.5 10 Norte 18 Noroeste 0 991.8 -- 24
2020-07-17 13:00:00 35.3 8 Oeste 23 Noroeste 0 992.1 -- 25
2020-07-17 12:00:00 34.2 6 Sudoeste 12 Oeste 0 992.3 -- 25
2020-07-17 11:00:00 32 6 Oeste 14 Oeste 0 992.5 -- 29
2020-07-17 10:00:00 29.8 8 Oeste 18 Oeste 0 992.8 -- 35
2020-07-17 09:00:00 27.4 8 Oeste 13 Oeste 0 992.5 -- 42
2020-07-17 08:00:00 25 7 Oeste 10 Oeste 0 991.9 -- 46
2020-07-17 07:00:00 24.7 4 Oeste 11 Oeste 0 991.4 -- 47
2020-07-17 06:00:00 25.7 6 Sudoeste 12 Oeste 0 991 -- 41
2020-07-17 05:00:00 26.6 5 Sudoeste 10 Sur 0 990.9 -- 39
2020-07-17 04:00:00 26.8 4 Sudoeste 9 Sudoeste 0 990.9 -- 38
2020-07-17 03:00:00 27 5 Noroeste 14 Noroeste 0 990.8 -- 42
2020-07-17 02:00:00 29.5 7 Sudeste 12 Sudeste 0 991 -- 32
2020-07-17 01:00:00 30.2 4 Sudeste 10 Nordeste 0 990.9 -- 33
2020-07-17 00:00:00 30.3 5 Sudeste 18 Norte 0 991 -- 41
2020-07-16 23:00:00 32.6 2 Sudoeste 3 Sudoeste 0 990.6 -- 33
2020-07-16 22:00:00 35.6 3 Sur 8 Noroeste 0 990.3 -- 27
2020-07-16 21:00:00 38.5 3 Sudoeste 10 Sudoeste 0 990.3 -- 18
2020-07-16 20:00:00 39.7 3 Oeste 28 Noroeste 0 990.4 -- 17
2020-07-16 19:00:00 39.6 6 Norte 15 Norte 0 990.8 -- 16
2020-07-16 18:00:00 39.9 8 Norte 17 Nordeste 0 991.1 -- 17
2020-07-16 17:00:00 39.7 9 Nordeste 22 Norte 0 991.4 -- 17
2020-07-16 16:00:00 39 9 Norte 23 Nordeste 0 991.9 -- 19
2020-07-16 15:00:00 38.1 11 Nordeste 20 Nordeste 0 992.6 -- 21
2020-07-16 14:00:00 37 10 Nordeste 19 Nordeste 0 993.2 -- 23
2020-07-16 13:00:00 35.6 11 Nordeste 18 Nordeste 0 993.6 -- 25
2020-07-16 12:00:00 33.9 12 Este 19 Este 0 993.8 -- 29
2020-07-16 11:00:00 31.9 14 Este 20 Este 0 993.7 -- 32
2020-07-16 10:00:00 29.3 11 Este 17 Este 0 993.4 -- 38
2020-07-16 09:00:00 26.5 11 Este 19 Este 0 993 -- 45
2020-07-16 08:00:00 23.5 0 Calma 6 Noroeste 0 992.6 -- 48
2020-07-16 07:00:00 23.2 2 Noroeste 4 Sur 0 992.2 -- 47
2020-07-16 06:00:00 23.5 3 Nordeste 6 Noroeste 0 991.8 -- 47
2020-07-16 05:00:00 24.8 3 Norte 8 Noroeste 0 991.9 -- 40
2020-07-16 04:00:00 26.2 4 Oeste 6 Sudoeste 0 992 -- 34
2020-07-16 03:00:00 26.7 0 Calma 6 Oeste 0 992 -- 35
2020-07-16 02:00:00 27.6 0 Calma 4 Noroeste 0 992 -- 34
2020-07-16 01:00:00 28.6 0 Calma 7 Norte 0 991.7 -- 33
2020-07-16 00:00:00 29.9 6 Norte 9 Norte 0 991.4 -- 31
2020-07-15 23:00:00 31.5 6 Nordeste 10 Nordeste 0 990.8 -- 31
2020-07-15 22:00:00 33.9 4 Oeste 6 Oeste 0 990.2 -- 29
2020-07-15 21:00:00 36.8 3 Nordeste 11 Este 0 990 -- 21
2020-07-15 20:00:00 37.7 6 Nordeste 15 Este 0 989.9 -- 20
2020-07-15 19:00:00 38.3 7 Este 17 Sudeste 0 990.1 -- 20
2020-07-15 18:00:00 37.9 7 Este 22 Este 0 990.6 -- 21
2020-07-15 17:00:00 37.4 11 Este 22 Este 0 991 -- 23
2020-07-15 16:00:00 36.5 10 Nordeste 22 Este 0 991.5 -- 26
2020-07-15 15:00:00 35.3 8 Este 19 Este 0 991.9 -- 26
2020-07-15 14:00:00 33.8 9 Este 27 Este 0 992.5 -- 29
2020-07-15 13:00:00 31.5 6 Nordeste 15 Este 0 992.7 -- 29
2020-07-15 12:00:00 30 7 Nordeste 15 Nordeste 0 992.8 -- 30
2020-07-15 11:00:00 27.8 8 Nordeste 14 Este 0 992.6 -- 35
2020-07-15 10:00:00 25.6 5 Nordeste 11 Nordeste 0 992.1 -- 42
2020-07-15 09:00:00 23.6 4 Oeste 7 Sudoeste 0 991.7 -- 45
2020-07-15 08:00:00 20.9 0 Calma 5 Sur 0 990.9 -- 53
2020-07-15 07:00:00 19.7 3 Norte 5 Este 0 990.2 -- 61
2020-07-15 06:00:00 21.8 5 Oeste 12 Oeste 0 989.7 -- 49
2020-07-15 05:00:00 22 8 Oeste 13 Oeste 0 989 -- 49
2020-07-15 04:00:00 23.7 7 Oeste 14 Oeste 0 989.2 -- 42
2020-07-15 03:00:00 24.6 7 Sudoeste 14 Oeste 0 989.1 -- 41
2020-07-15 02:00:00 25.4 9 Oeste 16 Oeste 0 989 -- 41
2020-07-15 01:00:00 26.6 9 Oeste 17 Oeste 0 989 -- 39
2020-07-15 00:00:00 27.5 12 Oeste 19 Noroeste 0 988.9 -- 37
2020-07-14 23:00:00 29.4 12 Oeste 27 Oeste 0 988.5 -- 33
2020-07-14 22:00:00 31.8 18 Oeste 31 Oeste 0 988 -- 30
2020-07-14 21:00:00 35.9 10 Norte 26 Noroeste 0 987.4 -- 18
2020-07-14 20:00:00 37.4 13 Noroeste 27 Noroeste 0 987.1 -- 16
2020-07-14 19:00:00 38.4 17 Noroeste 27 Noroeste 0 987.2 -- 17
2020-07-14 18:00:00 38.5 14 Noroeste 30 Noroeste 0 987.9 -- 15
2020-07-14 17:00:00 38.8 14 Noroeste 30 Noroeste 0 988.7 -- 14
2020-07-14 16:00:00 38.1 12 Noroeste 31 Noroeste 0 989.3 -- 16
2020-07-14 15:00:00 38.1 9 Oeste 24 Noroeste 0 989.9 -- 17
2020-07-14 14:00:00 36.9 7 Nordeste 14 Nordeste 0 990.6 -- 22
2020-07-14 13:00:00 35.2 6 Norte 15 Norte 0 991.2 -- 23
2020-07-14 12:00:00 32.9 5 Oeste 13 Noroeste 0 991.9 -- 27
2020-07-14 11:00:00 31 4 Nordeste 13 Norte 0 992 -- 28
2020-07-14 10:00:00 28.6 6 Noroeste 14 Noroeste 0 992.3 -- 34
2020-07-14 09:00:00 26.2 11 Noroeste 14 Noroeste 0 992.3 -- 39
2020-07-14 08:00:00 25.2 8 Oeste 12 Oeste 0 992.1 -- 38
2020-07-14 07:00:00 24.1 5 Oeste 8 Sudoeste 0 992.2 -- 41
2020-07-14 06:00:00 24.6 4 Oeste 10 Oeste 0 992.2 -- 39
2020-07-14 05:00:00 25.5 6 Oeste 12 Oeste 0 992.3 -- 35
2020-07-14 04:00:00 26.2 8 Oeste 14 Oeste 0 992.5 -- 34
2020-07-14 03:00:00 27.3 6 Oeste 13 Oeste 0 992.7 -- 33
2020-07-14 02:00:00 28.2 10 Oeste 15 Oeste 0 993 -- 32
2020-07-14 01:00:00 28.8 3 Noroeste 11 Noroeste 0 992.8 -- 31
2020-07-14 00:00:00 30.2 8 Norte 19 Noroeste 0 992.9 -- 29
2020-07-13 23:00:00 32.2 13 Norte 18 Norte 0 992.7 -- 25
2020-07-13 22:00:00 32.9 11 Norte 14 Norte 0 992.1 0.1 26
2020-07-13 21:00:00 35.9 9 Norte 14 Norte 0 991.8 -0.6 22
2020-07-13 20:00:00 37.9 10 Norte 22 Noroeste 0 991.8 -1.3 14
2020-07-13 19:00:00 38.5 12 Norte 27 Noroeste 0 992 -1.7 14
2020-07-13 18:00:00 39 16 Noroeste 27 Norte 0 992.4 -1.9 13
2020-07-13 17:00:00 38.6 20 Norte 33 Norte 0 993.1 -1.8 16
2020-07-13 16:00:00 38 14 Norte 27 Norte 0 993.7 -1.7 18
2020-07-13 15:00:00 37.7 18 Norte 31 Nordeste 0 994.3 -1.4 21
2020-07-13 14:00:00 36.7 19 Nordeste 34 Norte 0 994.9 -0.6 22
2020-07-13 13:00:00 34.7 15 Norte 26 Norte 0 995.4 -0.2 28
2020-07-13 12:00:00 33.4 18 Norte 26 Norte 0 995.7 0.6 31
2020-07-13 11:00:00 31.8 13 Norte 20 Norte 0 995.5 0.8 37
2020-07-13 10:00:00 29.1 4 Oeste 10 Noroeste 0 995.6 1.3 45
2020-07-13 09:00:00 26.8 5 Noroeste 9 Noroeste 0 995.1 1.3 47
2020-07-13 08:00:00 25.4 5 Oeste 9 Noroeste 0 994.7 0.9 48
2020-07-13 07:00:00 23.9 5 Noroeste 9 Oeste 0 994.3 -- 49
2020-07-13 06:00:00 24.2 8 Oeste 12 Noroeste 0 993.8 -0.2 47
2020-07-13 05:00:00 25.2 8 Oeste 14 Oeste 0 993.8 0.1 43
2020-07-13 04:00:00 26 6 Oeste 12 Sudoeste 0 994 0.3 41
2020-07-13 03:00:00 26.9 6 Oeste 9 Sudoeste 0 994 0.5 39
2020-07-13 02:00:00 27.6 5 Sudoeste 9 Noroeste 0 993.7 0.8 38
2020-07-13 01:00:00 29 7 Noroeste 11 Noroeste 0 993.7 1.8 34
2020-07-13 00:00:00 29.5 8 Norte 16 Norte 0 993.5 2.1 32
2020-07-12 23:00:00 31.1 13 Norte 22 Norte 0 992.9 1.9 28
2020-07-12 22:00:00 32.6 9 Norte 15 Noroeste 0 991.9 1 25
2020-07-12 21:00:00 35.4 12 Noroeste 22 Noroeste 0 991.4 0.2 21
2020-07-12 20:00:00 37.2 10 Noroeste 21 Noroeste 0 991 -0.5 17
2020-07-12 19:00:00 38 9 Norte 26 Noroeste 0 990.9 -1.1 18
2020-07-12 18:00:00 38.7 12 Oeste 24 Noroeste 0 991.2 -1.3 17
2020-07-12 17:00:00 38.6 10 Oeste 24 Noroeste 0 991.5 -1.4 17
2020-07-12 16:00:00 38 11 Oeste 19 Oeste 0 992 -1.2 18
2020-07-12 15:00:00 36.8 8 Sudoeste 23 Noroeste 0 992.5 -- 22
2020-07-12 14:00:00 35.6 7 Oeste 17 Noroeste 0 992.9 -0.2 24
2020-07-12 13:00:00 33.3 6 Noroeste 16 Noroeste 0 993.2 -- 28
2020-07-12 12:00:00 31.4 7 Oeste 15 Noroeste 0 993.3 -- 32
2020-07-12 11:00:00 29.6 6 Oeste 13 Noroeste 0 993.1 -- 34
2020-07-12 10:00:00 27.5 8 Oeste 15 Oeste 0 992.9 1.3 40
2020-07-12 09:00:00 25.1 5 Sudoeste 12 Oeste 0 992.6 -- 50
2020-07-12 08:00:00 22.2 6 Oeste 14 Oeste 0 992.3 -- 56
2020-07-12 07:00:00 21.9 5 Oeste 12 Sudoeste 0 991.6 -- 52
2020-07-12 06:00:00 22.9 6 Sur 10 Sudoeste 0 990.9 -- 49
2020-07-12 05:00:00 24 5 Sur 9 Sur 0 990.7 -- 46
2020-07-12 04:00:00 24.2 8 Noroeste 17 Noroeste 0 990.9 -- 45
2020-07-12 03:00:00 25.4 8 Oeste 14 Noroeste 0 991.2 -- 42
2020-07-12 02:00:00 26.7 6 Oeste 22 Noroeste 0 991.7 -- 39
2020-07-12 01:00:00 26.7 13 Noroeste 18 Noroeste 0 991 -- 40
2020-07-12 00:00:00 28.1 12 Oeste 25 Noroeste 0 990.2 -- 37
2020-07-11 23:00:00 30.3 18 Oeste 34 Oeste 0 989.5 -- 31
2020-07-11 22:00:00 34 10 Sudoeste 27 Sudoeste 0 987.9 -- 27
2020-07-11 21:00:00 36.6 9 Sudoeste 24 Oeste 0 987.1 -- 21
2020-07-11 20:00:00 38.3 10 Oeste 24 Oeste 0 986.9 -- 20
2020-07-11 19:00:00 40.9 6 Sudeste 21 Nordeste 0 986.9 -1.9 16
2020-07-11 18:00:00 40.8 11 Nordeste 20 Nordeste 0 987.6 -- 14
2020-07-11 17:00:00 40.1 9 Nordeste 18 Noroeste 0 988.1 -- 16
2020-07-11 16:00:00 39 9 Norte 19 Norte 0 988.8 -- 19
2020-07-11 15:00:00 37.6 12 Norte 21 Norte 0 989.5 -- 24
2020-07-11 14:00:00 37.1 5 Este 18 Este 0 990.4 -- 25
2020-07-11 13:00:00 34 8 Nordeste 16 Este 0 990.9 -- 32
2020-07-11 12:00:00 32 8 Este 13 Este 0 991.2 -- 31
2020-07-11 11:00:00 28.6 6 Nordeste 10 Nordeste 0 991.2 -- 44
2020-07-11 10:00:00 26.4 3 Noroeste 5 Norte 0 991.2 -- 47
2020-07-11 09:00:00 23.7 3 Oeste 6 Oeste 0 991 -- 56
2020-07-11 08:00:00 21.7 2 Oeste 9 Sudoeste 0 990.4 -- 62
2020-07-11 07:00:00 21.2 6 Oeste 11 Oeste 0 990.1 -- 63
2020-07-11 06:00:00 21.7 6 Oeste 13 Oeste 0 989.9 -- 63
2020-07-11 05:00:00 22.3 10 Oeste 15 Oeste 0 989.8 -- 61
2020-07-11 04:00:00 23.9 3 Sudoeste 12 Oeste 0 989.9 -- 55
2020-07-11 03:00:00 24.8 5 Sudoeste 14 Oeste 0 990.2 -- 53
2020-07-11 02:00:00 26.3 5 Oeste 14 Oeste 0 990.3 0.5 49
2020-07-11 01:00:00 27.3 10 Oeste 17 Oeste 0 990.4 -- 42
2020-07-11 00:00:00 28.6 12 Oeste 18 Noroeste 0 990.2 -- 40
2020-07-10 23:00:00 29.7 14 Noroeste 19 Oeste 0 989.8 -- 32
2020-07-10 22:00:00 31.8 11 Oeste 19 Noroeste 0 989.1 -- 27
2020-07-10 21:00:00 36.2 10 Oeste 19 Oeste 0 988.8 -- 20
2020-07-10 20:00:00 38.4 9 Oeste 18 Noroeste 0 988.6 -- 16
2020-07-10 19:00:00 39 10 Oeste 19 Oeste 0 988.7 -- 16
2020-07-10 18:00:00 38.8 8 Oeste 21 Oeste 0 989 -- 16
2020-07-10 17:00:00 38.4 7 Oeste 18 Oeste 0 989.7 -- 14
2020-07-10 16:00:00 37.6 8 Oeste 17 Noroeste 0 990.3 -- 19
2020-07-10 15:00:00 36.2 8 Noroeste 16 Noroeste 0 991.1 -- 23
2020-07-10 14:00:00 34.3 5 Sur 15 Este 0 991.7 -1 28
2020-07-10 13:00:00 31.9 8 Este 16 Nordeste 0 992.1 -- 30
2020-07-10 12:00:00 29.3 7 Nordeste 12 Este 0 992.4 -- 36
2020-07-10 11:00:00 25.8 5 Noroeste 11 Noroeste 0 992.7 0 49
2020-07-10 10:00:00 23.1 6 Oeste 12 Noroeste 0 992.8 -- 57
2020-07-10 09:00:00 21 7 Oeste 15 Oeste 0 992.7 -- 63
2020-07-10 08:00:00 19.3 8 Oeste 17 Oeste 0 992.7 -- 67
2020-07-10 07:00:00 18.8 10 Oeste 19 Oeste 0 992.4 -- 70
2020-07-10 06:00:00 20.1 10 Oeste 20 Oeste 0 992.1 -- 67
2020-07-10 05:00:00 20.9 10 Oeste 20 Oeste 0 992.4 -- 65
2020-07-10 04:00:00 22.6 8 Oeste 19 Oeste 0 992.2 -- 57
2020-07-10 03:00:00 23.4 10 Oeste 17 Sudoeste 0 992.4 -- 56
2020-07-10 02:00:00 24.2 9 Oeste 18 Oeste 0 992.7 -- 54
2020-07-10 01:00:00 25.1 12 Oeste 22 Oeste 0 992.8 -- 54
2020-07-10 00:00:00 27.7 11 Oeste 19 Oeste 0 992.4 -- 45
2020-07-09 23:00:00 28.9 8 Oeste 15 Oeste 0 991.9 -- 17
2020-07-09 22:00:00 31.3 5 Sudoeste 9 Oeste 0 991.2 -- 16
2020-07-09 21:00:00 34.1 6 Oeste 14 Noroeste 0 991.2 -- 11
2020-07-09 20:00:00 35.6 8 Oeste 14 Noroeste 0 991.1 -- 8
2020-07-09 19:00:00 34.7 7 Norte 17 Norte 0 991.4 -- 13
2020-07-09 18:00:00 34.7 8 Norte 15 Norte 0 991.9 -- 16
2020-07-09 17:00:00 34.3 9 Norte 17 Norte 0 992.5 -- 20
2020-07-09 16:00:00 32.8 6 Nordeste 16 Norte 0 993.2 -- 22
2020-07-09 15:00:00 31.2 10 Nordeste 17 Nordeste 0 993.7 -- 34
2020-07-09 14:00:00 29.6 8 Nordeste 16 Este 0 994.2 -- 42
2020-07-09 13:00:00 27.9 8 Nordeste 13 Nordeste 0 994.6 -- 46
2020-07-09 12:00:00 25.9 4 Sudoeste 10 Nordeste 0 994.8 -- 50
2020-07-09 11:00:00 23 5 Noroeste 11 Oeste 0 995.1 -- 61
2020-07-09 10:00:00 20.8 4 Sudoeste 11 Oeste 0 995.1 -- 69
2020-07-09 09:00:00 18.8 6 Noroeste 12 Oeste 0 994.7 -- 77
2020-07-09 08:00:00 17.8 4 Sur 12 Sudoeste 0 993.9 -- 81
2020-07-09 07:00:00 16.7 4 Oeste 12 Oeste 0 993.5 -- 86
2020-07-09 06:00:00 17.6 10 Sudoeste 19 Oeste 0 992.9 -- 81
2020-07-09 05:00:00 18.8 4 Sudoeste 15 Sudoeste 0 992.8 -- 76
2020-07-09 04:00:00 19.5 4 Sudoeste 13 Sudoeste 0 992.3 -- 73
2020-07-09 03:00:00 20.4 5 Sudoeste 14 Sudoeste 0 992.2 -- 69
2020-07-09 02:00:00 22.1 4 Sudoeste 17 Oeste 0 992.9 -- 62
2020-07-09 01:00:00 24 10 Oeste 18 Oeste 0 992.4 -- 54
2020-07-09 00:00:00 25.7 7 Oeste 16 Oeste 0 992 -- 47
2020-07-08 23:00:00 27.9 12 Oeste 20 Sudoeste 0 991.2 -- 35
2020-07-08 22:00:00 29.2 10 Oeste 21 Noroeste 0 990 -- 31
2020-07-08 21:00:00 31.8 14 Oeste 27 Oeste 0 989.1 -- 24
2020-07-08 20:00:00 34.5 14 Oeste 34 Noroeste 0 988.8 -- 17
2020-07-08 19:00:00 36.1 12 Oeste 28 Oeste 0 989 -- 14
2020-07-08 18:00:00 36.1 9 Sudoeste 24 Oeste 0 989.3 -- 14
2020-07-08 17:00:00 36.6 9 Sudoeste 31 Oeste 0 989.6 -- 11
2020-07-08 16:00:00 36.1 12 Sudoeste 26 Oeste 0 989.9 -- 15
2020-07-08 15:00:00 34.9 12 Sudoeste 25 Noroeste 0 990.3 -- 17
2020-07-08 14:00:00 32.6 13 Oeste 28 Oeste 0 990.8 -- 23
2020-07-08 13:00:00 30.9 13 Oeste 22 Oeste 0 991.1 -- 23
2020-07-08 12:00:00 27.1 10 Oeste 20 Oeste 0 991.3 -- 36
2020-07-08 11:00:00 23.4 15 Noroeste 23 Noroeste 0 991.3 -- 58
2020-07-08 10:00:00 22.2 13 Noroeste 19 Noroeste 0 991.1 -- 61
2020-07-08 09:00:00 21.6 13 Noroeste 19 Noroeste 0 990.8 -- 61
2020-07-08 08:00:00 20.7 6 Oeste 12 Oeste 0 990.5 -- 61
2020-07-08 07:00:00 21.8 6 Oeste 18 Oeste 0 990.2 -- 54
2020-07-08 06:00:00 23.5 9 Oeste 17 Oeste 0 990 -- 46
2020-07-08 05:00:00 24.8 6 Oeste 16 Oeste 0 990.2 -- 42
2020-07-08 04:00:00 24.8 6 Oeste 13 Oeste 0 990.5 -- 50
2020-07-08 03:00:00 26.4 6 Oeste 13 Sudoeste 0 990.7 -- 41
2020-07-08 02:00:00 28.1 6 Sudoeste 19 Oeste 0 991 -- 41
2020-07-08 01:00:00 30 7 Sudoeste 20 Oeste 0 991 -- 33
2020-07-08 00:00:00 31.4 6 Oeste 16 Sudoeste 0 990.5 -- 22